sensor_id;sensor_type;location;lat;lon;timestamp;pressure;altitude;pressure_sealevel;temperature;humidity
29879;BME280;16752;53.364;-1.488;2023-01-28T00:01:39;101936.75;;;14.05;39.76
29879;BME280;16752;53.364;-1.488;2023-01-28T00:04:04;101936.22;;;13.98;40.12
29879;BME280;16752;53.364;-1.488;2023-01-28T00:06:29;101939.81;;;13.97;39.93
29879;BME280;16752;53.364;-1.488;2023-01-28T00:08:55;101939.97;;;13.94;40.17
29879;BME280;16752;53.364;-1.488;2023-01-28T00:11:20;101938.88;;;13.98;39.96
29879;BME280;16752;53.364;-1.488;2023-01-28T00:13:52;101948.56;;;13.98;39.90
29879;BME280;16752;53.364;-1.488;2023-01-28T00:16:18;101946.88;;;13.97;40.24
29879;BME280;16752;53.364;-1.488;2023-01-28T00:18:44;101954.41;;;13.87;40.43
29879;BME280;16752;53.364;-1.488;2023-01-28T00:21:11;101936.88;;;13.70;40.63
29879;BME280;16752;53.364;-1.488;2023-01-28T00:23:37;101932.31;;;13.74;40.01
29879;BME280;16752;53.364;-1.488;2023-01-28T00:26:04;101932.41;;;13.88;39.96
29879;BME280;16752;53.364;-1.488;2023-01-28T00:28:30;101940.16;;;13.91;39.95
29879;BME280;16752;53.364;-1.488;2023-01-28T00:30:56;101936.81;;;13.88;39.79
29879;BME280;16752;53.364;-1.488;2023-01-28T00:33:21;101937.91;;;13.68;40.49
29879;BME280;16752;53.364;-1.488;2023-01-28T00:35:47;101937.97;;;13.33;40.46
29879;BME280;16752;53.364;-1.488;2023-01-28T00:38:13;101939.59;;;13.69;39.89
29879;BME280;16752;53.364;-1.488;2023-01-28T00:40:38;101934.97;;;13.90;40.08
29879;BME280;16752;53.364;-1.488;2023-01-28T00:43:04;101939.88;;;13.96;39.58
29879;BME280;16752;53.364;-1.488;2023-01-28T00:45:29;101938.09;;;13.96;40.16
29879;BME280;16752;53.364;-1.488;2023-01-28T00:47:55;101924.66;;;13.85;40.18
29879;BME280;16752;53.364;-1.488;2023-01-28T00:50:20;101930.97;;;13.98;39.69
29879;BME280;16752;53.364;-1.488;2023-01-28T00:52:46;101927.13;;;13.72;39.81
29879;BME280;16752;53.364;-1.488;2023-01-28T00:55:12;101929.34;;;13.96;39.87
29879;BME280;16752;53.364;-1.488;2023-01-28T00:57:38;101929.09;;;14.00;39.80
29879;BME280;16752;53.364;-1.488;2023-01-28T01:00:04;101930.16;;;13.65;40.67
29879;BME280;16752;53.364;-1.488;2023-01-28T01:02:30;101922.78;;;13.87;39.78
29879;BME280;16752;53.364;-1.488;2023-01-28T01:04:56;101932.66;;;13.99;39.88
29879;BME280;16752;53.364;-1.488;2023-01-28T01:07:25;101927.50;;;13.65;39.60
29879;BME280;16752;53.364;-1.488;2023-01-28T01:10:01;101934.34;;;13.85;39.00
29879;BME280;16752;53.364;-1.488;2023-01-28T01:12:27;101936.06;;;14.01;38.88
29879;BME280;16752;53.364;-1.488;2023-01-28T01:14:53;101929.19;;;13.99;39.37
29879;BME280;16752;53.364;-1.488;2023-01-28T01:17:19;101931.91;;;13.49;39.86
29879;BME280;16752;53.364;-1.488;2023-01-28T01:19:45;101918.63;;;13.34;39.57
29879;BME280;16752;53.364;-1.488;2023-01-28T01:22:11;101925.16;;;13.43;39.65
29879;BME280;16752;53.364;-1.488;2023-01-28T01:24:36;101912.13;;;13.07;40.08
29879;BME280;16752;53.364;-1.488;2023-01-28T01:27:02;101915.56;;;13.42;39.48
29879;BME280;16752;53.364;-1.488;2023-01-28T01:29:27;101916.44;;;13.91;38.52
29879;BME280;16752;53.364;-1.488;2023-01-28T01:31:53;101910.47;;;14.03;38.20
29879;BME280;16752;53.364;-1.488;2023-01-28T01:34:19;101909.38;;;13.92;38.86
29879;BME280;16752;53.364;-1.488;2023-01-28T01:36:44;101913.88;;;14.05;38.72
29879;BME280;16752;53.364;-1.488;2023-01-28T01:39:11;101908.97;;;14.15;38.63
29879;BME280;16752;53.364;-1.488;2023-01-28T01:41:36;101901.03;;;13.68;38.94
29879;BME280;16752;53.364;-1.488;2023-01-28T01:44:03;101905.91;;;13.42;39.37
29879;BME280;16752;53.364;-1.488;2023-01-28T01:49:00;101901.97;;;13.83;38.75
29879;BME280;16752;53.364;-1.488;2023-01-28T01:51:28;101913.88;;;14.05;38.42
29879;BME280;16752;53.364;-1.488;2023-01-28T01:53:55;101913.88;;;14.05;38.43
29879;BME280;16752;53.364;-1.488;2023-01-28T01:56:22;101912.69;;;13.95;39.14
29879;BME280;16752;53.364;-1.488;2023-01-28T01:58:49;101910.09;;;13.12;40.23
29879;BME280;16752;53.364;-1.488;2023-01-28T02:01:19;101904.31;;;13.23;39.62
29879;BME280;16752;53.364;-1.488;2023-01-28T02:06:14;101905.50;;;13.66;39.29
29879;BME280;16752;53.364;-1.488;2023-01-28T02:08:40;101901.88;;;13.84;39.04
29879;BME280;16752;53.364;-1.488;2023-01-28T02:11:06;101896.19;;;12.75;40.57
29879;BME280;16752;53.364;-1.488;2023-01-28T02:13:34;101892.63;;;13.11;40.40
29879;BME280;16752;53.364;-1.488;2023-01-28T02:16:00;101879.72;;;13.24;39.47
29879;BME280;16752;53.364;-1.488;2023-01-28T02:18:27;101884.19;;;13.55;39.15
29879;BME280;16752;53.364;-1.488;2023-01-28T02:23:26;101875.88;;;13.47;39.53
29879;BME280;16752;53.364;-1.488;2023-01-28T02:26:19;101867.16;;;13.44;39.59
29879;BME280;16752;53.364;-1.488;2023-01-28T02:36:51;101863.94;;;13.39;39.70
29879;BME280;16752;53.364;-1.488;2023-01-28T02:39:19;101863.84;;;13.25;39.98
29879;BME280;16752;53.364;-1.488;2023-01-28T02:44:22;101872.59;;;13.41;39.41
29879;BME280;16752;53.364;-1.488;2023-01-28T02:46:50;101866.66;;;12.88;40.71
29879;BME280;16752;53.364;-1.488;2023-01-28T02:49:42;101845.13;;;12.97;39.96
29879;BME280;16752;53.364;-1.488;2023-01-28T03:05:35;101875.47;;;12.69;40.51
29879;BME280;16752;53.364;-1.488;2023-01-28T03:08:02;101861.09;;;12.59;40.67
29879;BME280;16752;53.364;-1.488;2023-01-28T03:10:48;101862.31;;;12.52;40.94
29879;BME280;16752;53.364;-1.488;2023-01-28T03:13:33;101867.13;;;12.44;41.05
29879;BME280;16752;53.364;-1.488;2023-01-28T03:16:18;101877.53;;;12.28;41.34
29879;BME280;16752;53.364;-1.488;2023-01-28T03:19:02;101862.91;;;12.22;41.33
29879;BME280;16752;53.364;-1.488;2023-01-28T03:21:46;101851.78;;;12.17;41.53
29879;BME280;16752;53.364;-1.488;2023-01-28T03:24:32;101858.25;;;12.10;41.44
29879;BME280;16752;53.364;-1.488;2023-01-28T03:27:20;101862.94;;;12.04;41.57
29879;BME280;16752;53.364;-1.488;2023-01-28T03:30:10;101864.94;;;11.99;41.80
29879;BME280;16752;53.364;-1.488;2023-01-28T03:32:56;101872.91;;;11.78;41.89
29879;BME280;16752;53.364;-1.488;2023-01-28T03:35:41;101862.22;;;11.62;42.50
29879;BME280;16752;53.364;-1.488;2023-01-28T03:38:26;101866.94;;;11.75;42.13
29879;BME280;16752;53.364;-1.488;2023-01-28T03:40:59;101862.88;;;11.68;42.04
29879;BME280;16752;53.364;-1.488;2023-01-28T03:43:24;101865.78;;;11.61;42.12
29879;BME280;16752;53.364;-1.488;2023-01-28T03:45:50;101873.03;;;11.56;42.08
29879;BME280;16752;53.364;-1.488;2023-01-28T03:48:20;101877.25;;;11.40;42.28
29879;BME280;16752;53.364;-1.488;2023-01-28T03:50:46;101880.78;;;11.39;42.12
29879;BME280;16752;53.364;-1.488;2023-01-28T03:53:12;101879.53;;;11.29;42.29
29879;BME280;16752;53.364;-1.488;2023-01-28T03:55:38;101877.00;;;11.26;42.38
29879;BME280;16752;53.364;-1.488;2023-01-28T03:58:04;101866.28;;;11.12;42.41
29879;BME280;16752;53.364;-1.488;2023-01-28T04:00:32;101878.41;;;11.14;42.69
29879;BME280;16752;53.364;-1.488;2023-01-28T04:02:59;101876.00;;;11.10;42.69
29879;BME280;16752;53.364;-1.488;2023-01-28T04:05:25;101869.38;;;11.01;42.44
29879;BME280;16752;53.364;-1.488;2023-01-28T04:07:54;101872.84;;;11.01;42.68
29879;BME280;16752;53.364;-1.488;2023-01-28T04:10:19;101878.09;;;11.01;42.67
29879;BME280;16752;53.364;-1.488;2023-01-28T04:12:45;101872.13;;;10.98;42.78
29879;BME280;16752;53.364;-1.488;2023-01-28T04:15:13;101871.41;;;10.94;42.64
29879;BME280;16752;53.364;-1.488;2023-01-28T04:17:42;101873.25;;;10.92;42.87
29879;BME280;16752;53.364;-1.488;2023-01-28T04:20:08;101878.84;;;10.85;42.83
29879;BME280;16752;53.364;-1.488;2023-01-28T04:22:36;101883.31;;;10.81;43.16
29879;BME280;16752;53.364;-1.488;2023-01-28T04:25:04;101877.09;;;10.84;43.05
29879;BME280;16752;53.364;-1.488;2023-01-28T04:27:29;101870.09;;;10.84;43.04
29879;BME280;16752;53.364;-1.488;2023-01-28T04:29:55;101868.72;;;10.76;43.30
29879;BME280;16752;53.364;-1.488;2023-01-28T04:32:20;101865.59;;;10.88;43.23
29879;BME280;16752;53.364;-1.488;2023-01-28T04:34:45;101875.09;;;10.90;43.17
29879;BME280;16752;53.364;-1.488;2023-01-28T04:37:11;101889.13;;;10.89;43.29
29879;BME280;16752;53.364;-1.488;2023-01-28T04:39:37;101889.69;;;10.96;43.15
29879;BME280;16752;53.364;-1.488;2023-01-28T04:42:02;101891.72;;;10.69;43.30
29879;BME280;16752;53.364;-1.488;2023-01-28T04:44:28;101898.91;;;10.84;42.91
29879;BME280;16752;53.364;-1.488;2023-01-28T04:46:53;101895.75;;;10.56;43.57
29879;BME280;16752;53.364;-1.488;2023-01-28T04:49:19;101904.63;;;10.31;44.20
29879;BME280;16752;53.364;-1.488;2023-01-28T04:51:44;101898.88;;;10.65;43.39
29879;BME280;16752;53.364;-1.488;2023-01-28T04:54:10;101892.84;;;10.63;43.44
29879;BME280;16752;53.364;-1.488;2023-01-28T04:56:35;101903.31;;;10.63;43.58
29879;BME280;16752;53.364;-1.488;2023-01-28T04:59:01;101912.88;;;10.64;43.25
29879;BME280;16752;53.364;-1.488;2023-01-28T05:01:27;101910.00;;;10.05;44.53
29879;BME280;16752;53.364;-1.488;2023-01-28T05:03:52;101912.66;;;10.49;43.42
29879;BME280;16752;53.364;-1.488;2023-01-28T05:06:18;101904.53;;;10.55;43.41
29879;BME280;16752;53.364;-1.488;2023-01-28T05:08:43;101907.09;;;10.56;43.22
29879;BME280;16752;53.364;-1.488;2023-01-28T05:11:11;101911.09;;;10.45;43.57
29879;BME280;16752;53.364;-1.488;2023-01-28T05:13:37;101923.56;;;10.38;43.59
29879;BME280;16752;53.364;-1.488;2023-01-28T05:16:03;101931.25;;;10.43;43.43
29879;BME280;16752;53.364;-1.488;2023-01-28T05:18:28;101927.81;;;10.40;43.28
29879;BME280;16752;53.364;-1.488;2023-01-28T05:20:54;101926.94;;;10.42;43.43
29879;BME280;16752;53.364;-1.488;2023-01-28T05:23:19;101915.41;;;10.46;43.63
29879;BME280;16752;53.364;-1.488;2023-01-28T05:25:45;101915.16;;;10.52;43.65
29879;BME280;16752;53.364;-1.488;2023-01-28T05:28:10;101900.34;;;10.51;43.73
29879;BME280;16752;53.364;-1.488;2023-01-28T05:30:36;101899.28;;;10.55;43.80
29879;BME280;16752;53.364;-1.488;2023-01-28T05:33:02;101900.34;;;10.51;43.81
29879;BME280;16752;53.364;-1.488;2023-01-28T05:35:28;101898.25;;;10.59;43.62
29879;BME280;16752;53.364;-1.488;2023-01-28T05:37:53;101895.47;;;10.63;43.85
29879;BME280;16752;53.364;-1.488;2023-01-28T05:40:19;101893.50;;;10.68;43.89
29879;BME280;16752;53.364;-1.488;2023-01-28T05:42:44;101894.88;;;10.77;43.76
29879;BME280;16752;53.364;-1.488;2023-01-28T05:45:10;101897.19;;;10.85;43.84
29879;BME280;16752;53.364;-1.488;2023-01-28T05:47:36;101895.94;;;10.93;44.00
29879;BME280;16752;53.364;-1.488;2023-01-28T05:50:01;101895.84;;;10.95;44.26
29879;BME280;16752;53.364;-1.488;2023-01-28T05:52:26;101891.53;;;11.14;43.93
29879;BME280;16752;53.364;-1.488;2023-01-28T05:54:52;101884.88;;;11.26;43.84
29879;BME280;16752;53.364;-1.488;2023-01-28T05:57:17;101880.91;;;11.17;44.31
29879;BME280;16752;53.364;-1.488;2023-01-28T05:59:43;101873.34;;;11.30;44.17
29879;BME280;16752;53.364;-1.488;2023-01-28T06:02:08;101875.34;;;11.44;43.74
29879;BME280;16752;53.364;-1.488;2023-01-28T06:04:34;101867.47;;;11.44;43.93
29879;BME280;16752;53.364;-1.488;2023-01-28T06:06:59;101875.78;;;11.53;43.79
29879;BME280;16752;53.364;-1.488;2023-01-28T06:09:24;101872.94;;;11.58;43.67
29879;BME280;16752;53.364;-1.488;2023-01-28T06:11:50;101870.59;;;11.71;43.30
29879;BME280;16752;53.364;-1.488;2023-01-28T06:14:24;101865.22;;;11.16;44.28
29879;BME280;16752;53.364;-1.488;2023-01-28T06:16:52;101866.06;;;11.55;43.55
29879;BME280;16752;53.364;-1.488;2023-01-28T06:19:17;101876.34;;;11.60;43.61
29879;BME280;16752;53.364;-1.488;2023-01-28T06:21:43;101879.09;;;11.38;44.10
29879;BME280;16752;53.364;-1.488;2023-01-28T06:24:08;101881.22;;;11.30;44.38
29879;BME280;16752;53.364;-1.488;2023-01-28T06:26:34;101877.56;;;11.53;44.09
29879;BME280;16752;53.364;-1.488;2023-01-28T06:28:59;101880.47;;;11.08;44.56
29879;BME280;16752;53.364;-1.488;2023-01-28T06:31:25;101876.38;;;11.21;44.74
29879;BME280;16752;53.364;-1.488;2023-01-28T06:33:50;101884.19;;;11.41;44.01
29879;BME280;16752;53.364;-1.488;2023-01-28T06:36:16;101875.91;;;10.50;45.50
29879;BME280;16752;53.364;-1.488;2023-01-28T06:38:41;101876.66;;;10.74;44.71
29879;BME280;16752;53.364;-1.488;2023-01-28T06:41:07;101877.91;;;11.06;44.22
29879;BME280;16752;53.364;-1.488;2023-01-28T06:43:32;101877.81;;;11.28;43.80
29879;BME280;16752;53.364;-1.488;2023-01-28T06:45:57;101871.59;;;10.69;45.31
29879;BME280;16752;53.364;-1.488;2023-01-28T06:48:23;101869.97;;;11.08;44.65
29879;BME280;16752;53.364;-1.488;2023-01-28T06:50:49;101868.56;;;11.19;44.75
29879;BME280;16752;53.364;-1.488;2023-01-28T06:53:15;101871.69;;;11.09;45.15
29879;BME280;16752;53.364;-1.488;2023-01-28T06:55:40;101863.50;;;11.35;44.62
29879;BME280;16752;53.364;-1.488;2023-01-28T06:58:05;101869.47;;;11.18;45.19
29879;BME280;16752;53.364;-1.488;2023-01-28T07:00:31;101861.97;;;11.50;44.72
29879;BME280;16752;53.364;-1.488;2023-01-28T07:02:57;101848.84;;;11.11;45.67
29879;BME280;16752;53.364;-1.488;2023-01-28T07:05:22;101846.44;;;11.25;45.37
29879;BME280;16752;53.364;-1.488;2023-01-28T07:07:48;101859.53;;;11.45;44.93
29879;BME280;16752;53.364;-1.488;2023-01-28T07:10:13;101856.84;;;11.66;44.18
29879;BME280;16752;53.364;-1.488;2023-01-28T07:12:40;101858.41;;;11.51;44.45
29879;BME280;16752;53.364;-1.488;2023-01-28T07:15:05;101864.69;;;11.47;44.21
29879;BME280;16752;53.364;-1.488;2023-01-28T07:17:31;101881.50;;;10.83;46.38
29879;BME280;16752;53.364;-1.488;2023-01-28T07:19:56;101879.97;;;11.57;44.49
29879;BME280;16752;53.364;-1.488;2023-01-28T07:22:21;101883.88;;;11.68;43.98
29879;BME280;16752;53.364;-1.488;2023-01-28T07:24:47;101892.88;;;11.62;43.78
29879;BME280;16752;53.364;-1.488;2023-01-28T07:27:12;101892.63;;;11.48;44.32
29879;BME280;16752;53.364;-1.488;2023-01-28T07:29:38;101886.72;;;11.24;45.25
29879;BME280;16752;53.364;-1.488;2023-01-28T07:32:03;101876.72;;;11.52;44.54
29879;BME280;16752;53.364;-1.488;2023-01-28T07:34:32;101882.88;;;11.51;44.09
29879;BME280;16752;53.364;-1.488;2023-01-28T07:36:57;101898.25;;;11.40;44.14
29879;BME280;16752;53.364;-1.488;2023-01-28T07:39:23;101906.31;;;11.36;44.05
29879;BME280;16752;53.364;-1.488;2023-01-28T07:41:48;101894.09;;;11.16;43.83
29879;BME280;16752;53.364;-1.488;2023-01-28T07:44:14;101896.22;;;11.26;43.73
29879;BME280;16752;53.364;-1.488;2023-01-28T07:46:39;101904.84;;;11.10;44.14
29879;BME280;16752;53.364;-1.488;2023-01-28T07:49:04;101902.38;;;11.07;44.21
29879;BME280;16752;53.364;-1.488;2023-01-28T07:51:30;101905.22;;;11.00;44.38
29879;BME280;16752;53.364;-1.488;2023-01-28T07:53:55;101912.03;;;11.05;44.35
29879;BME280;16752;53.364;-1.488;2023-01-28T07:56:21;101907.41;;;11.11;43.91
29879;BME280;16752;53.364;-1.488;2023-01-28T07:58:50;101902.03;;;10.94;44.87
29879;BME280;16752;53.364;-1.488;2023-01-28T08:01:15;101899.66;;;11.08;44.17
29879;BME280;16752;53.364;-1.488;2023-01-28T08:03:42;101894.22;;;10.92;44.75
29879;BME280;16752;53.364;-1.488;2023-01-28T08:06:07;101902.22;;;10.89;44.68
29879;BME280;16752;53.364;-1.488;2023-01-28T08:08:33;101900.13;;;10.97;44.84
29879;BME280;16752;53.364;-1.488;2023-01-28T08:11:04;101890.56;;;10.96;44.69
29879;BME280;16752;53.364;-1.488;2023-01-28T08:13:30;101906.56;;;11.11;44.17
29879;BME280;16752;53.364;-1.488;2023-01-28T08:15:55;101889.97;;;11.10;44.21
29879;BME280;16752;53.364;-1.488;2023-01-28T08:18:21;101890.94;;;11.08;44.82
29879;BME280;16752;53.364;-1.488;2023-01-28T08:20:46;101896.19;;;11.08;44.83
29879;BME280;16752;53.364;-1.488;2023-01-28T08:23:16;101884.22;;;11.21;44.50
29879;BME280;16752;53.364;-1.488;2023-01-28T08:25:42;101883.38;;;11.20;44.50
29879;BME280;16752;53.364;-1.488;2023-01-28T08:28:08;101875.59;;;11.19;44.39
29879;BME280;16752;53.364;-1.488;2023-01-28T08:30:34;101876.16;;;11.25;44.39
29879;BME280;16752;53.364;-1.488;2023-01-28T08:32:59;101874.38;;;11.26;44.15
29879;BME280;16752;53.364;-1.488;2023-01-28T08:35:26;101878.22;;;11.19;44.08
29879;BME280;16752;53.364;-1.488;2023-01-28T08:37:52;101874.66;;;11.20;44.05
29879;BME280;16752;53.364;-1.488;2023-01-28T08:40:17;101875.09;;;11.11;44.33
29879;BME280;16752;53.364;-1.488;2023-01-28T08:42:47;101875.44;;;11.22;44.08
29879;BME280;16752;53.364;-1.488;2023-01-28T08:45:14;101878.78;;;11.25;44.02
29879;BME280;16752;53.364;-1.488;2023-01-28T08:50:14;101866.59;;;11.24;44.36
29879;BME280;16752;53.364;-1.488;2023-01-28T08:52:40;101867.97;;;11.33;44.27
29879;BME280;16752;53.364;-1.488;2023-01-28T08:55:09;101864.19;;;11.39;44.43
29879;BME280;16752;53.364;-1.488;2023-01-28T08:57:35;101859.56;;;11.25;44.34
29879;BME280;16752;53.364;-1.488;2023-01-28T09:00:01;101857.72;;;11.27;44.96
29879;BME280;16752;53.364;-1.488;2023-01-28T09:02:26;101871.47;;;11.52;44.58
29879;BME280;16752;53.364;-1.488;2023-01-28T09:04:52;101880.38;;;11.67;44.39
29879;BME280;16752;53.364;-1.488;2023-01-28T09:07:17;101879.50;;;11.87;44.69
29879;BME280;16752;53.364;-1.488;2023-01-28T09:09:43;101880.63;;;12.00;44.76
29879;BME280;16752;53.364;-1.488;2023-01-28T09:12:08;101880.81;;;12.14;44.75
29879;BME280;16752;53.364;-1.488;2023-01-28T09:14:35;101880.84;;;12.32;44.40
29879;BME280;16752;53.364;-1.488;2023-01-28T09:17:00;101880.25;;;12.44;44.40
29879;BME280;16752;53.364;-1.488;2023-01-28T09:19:26;101883.06;;;12.58;44.11
29879;BME280;16752;53.364;-1.488;2023-01-28T09:21:53;101881.19;;;12.43;44.41
29879;BME280;16752;53.364;-1.488;2023-01-28T09:24:19;101870.75;;;12.76;44.09
29879;BME280;16752;53.364;-1.488;2023-01-28T09:26:47;101887.66;;;12.36;44.78
29879;BME280;16752;53.364;-1.488;2023-01-28T09:29:12;101890.09;;;12.92;43.95
29879;BME280;16752;53.364;-1.488;2023-01-28T09:31:38;101891.47;;;12.99;43.42
29879;BME280;16752;53.364;-1.488;2023-01-28T09:34:04;101888.75;;;13.01;43.81
29879;BME280;16752;53.364;-1.488;2023-01-28T09:36:30;101903.91;;;13.48;43.04
29879;BME280;16752;53.364;-1.488;2023-01-28T09:38:56;101903.00;;;13.80;42.75
29879;BME280;16752;53.364;-1.488;2023-01-28T09:41:23;101906.31;;;13.99;42.25
29879;BME280;16752;53.364;-1.488;2023-01-28T09:43:53;101907.06;;;14.01;42.68
29879;BME280;16752;53.364;-1.488;2023-01-28T09:46:26;101910.44;;;14.51;41.90
29879;BME280;16752;53.364;-1.488;2023-01-28T09:48:55;101915.06;;;14.47;42.00
29879;BME280;16752;53.364;-1.488;2023-01-28T09:51:33;101921.03;;;14.81;41.11
29879;BME280;16752;53.364;-1.488;2023-01-28T09:54:05;101916.38;;;15.00;40.77
29879;BME280;16752;53.364;-1.488;2023-01-28T09:56:35;101918.09;;;15.29;40.30
29879;BME280;16752;53.364;-1.488;2023-01-28T09:59:22;101917.88;;;14.44;41.12
29879;BME280;16752;53.364;-1.488;2023-01-28T10:04:18;101914.53;;;15.45;39.05
29879;BME280;16752;53.364;-1.488;2023-01-28T10:12:13;101918.69;;;15.77;38.44
29879;BME280;16752;53.364;-1.488;2023-01-28T10:17:06;101930.44;;;16.41;38.40
29879;BME280;16752;53.364;-1.488;2023-01-28T10:19:40;101927.41;;;16.74;37.74
29879;BME280;16752;53.364;-1.488;2023-01-28T10:22:11;101931.88;;;16.99;36.00
29879;BME280;16752;53.364;-1.488;2023-01-28T10:24:42;101927.69;;;16.70;36.92
29879;BME280;16752;53.364;-1.488;2023-01-28T10:27:17;101926.28;;;17.17;36.37
29879;BME280;16752;53.364;-1.488;2023-01-28T10:29:43;101932.06;;;16.84;37.04
29879;BME280;16752;53.364;-1.488;2023-01-28T10:32:15;101934.03;;;17.45;36.13
29879;BME280;16752;53.364;-1.488;2023-01-28T10:34:41;101939.72;;;17.64;35.45
29879;BME280;16752;53.364;-1.488;2023-01-28T10:37:11;101938.78;;;17.78;35.25
29879;BME280;16752;53.364;-1.488;2023-01-28T10:39:37;101936.56;;;17.21;36.69
29879;BME280;16752;53.364;-1.488;2023-01-28T10:42:09;101928.88;;;16.91;36.56
29879;BME280;16752;53.364;-1.488;2023-01-28T10:44:38;101936.47;;;16.43;36.38
29879;BME280;16752;53.364;-1.488;2023-01-28T10:47:09;101941.91;;;16.55;36.23
29879;BME280;16752;53.364;-1.488;2023-01-28T10:49:38;101934.75;;;17.22;36.43
29879;BME280;16752;53.364;-1.488;2023-01-28T10:52:09;101942.25;;;17.02;37.42
29879;BME280;16752;53.364;-1.488;2023-01-28T10:54:35;101935.91;;;17.05;35.78
29879;BME280;16752;53.364;-1.488;2023-01-28T10:57:01;101927.66;;;17.35;35.37
29879;BME280;16752;53.364;-1.488;2023-01-28T10:59:29;101928.41;;;17.50;35.34
29879;BME280;16752;53.364;-1.488;2023-01-28T11:02:02;101937.31;;;18.71;33.21
29879;BME280;16752;53.364;-1.488;2023-01-28T11:04:29;101946.31;;;18.92;33.69
29879;BME280;16752;53.364;-1.488;2023-01-28T11:07:02;101948.22;;;19.48;31.66
29879;BME280;16752;53.364;-1.488;2023-01-28T11:09:29;101943.91;;;19.69;32.58
29879;BME280;16752;53.364;-1.488;2023-01-28T11:11:55;101937.16;;;19.76;31.39
29879;BME280;16752;53.364;-1.488;2023-01-28T11:14:22;101942.66;;;20.18;30.93
29879;BME280;16752;53.364;-1.488;2023-01-28T11:16:48;101946.88;;;20.09;31.04
29879;BME280;16752;53.364;-1.488;2023-01-28T11:19:14;101948.53;;;20.44;30.74
29879;BME280;16752;53.364;-1.488;2023-01-28T11:21:39;101939.69;;;20.32;30.39
29879;BME280;16752;53.364;-1.488;2023-01-28T11:24:16;101933.63;;;20.73;30.27
29879;BME280;16752;53.364;-1.488;2023-01-28T11:26:46;101934.53;;;20.20;31.62
29879;BME280;16752;53.364;-1.488;2023-01-28T11:29:32;101932.53;;;21.39;29.80
29879;BME280;16752;53.364;-1.488;2023-01-28T11:31:59;101932.59;;;21.88;28.02
29879;BME280;16752;53.364;-1.488;2023-01-28T11:34:26;101922.59;;;21.41;29.12
29879;BME280;16752;53.364;-1.488;2023-01-28T11:36:53;101918.28;;;21.89;27.78
29879;BME280;16752;53.364;-1.488;2023-01-28T11:39:23;101910.16;;;22.01;28.51
29879;BME280;16752;53.364;-1.488;2023-01-28T11:41:51;101915.44;;;22.31;27.76
29879;BME280;16752;53.364;-1.488;2023-01-28T11:46:46;101911.72;;;21.63;28.53
29879;BME280;16752;53.364;-1.488;2023-01-28T11:49:35;101908.06;;;20.61;30.01
29879;BME280;16752;53.364;-1.488;2023-01-28T11:52:06;101910.88;;;20.05;31.04
29879;BME280;16752;53.364;-1.488;2023-01-28T11:54:38;101916.94;;;18.59;33.75
29879;BME280;16752;53.364;-1.488;2023-01-28T12:17:52;101897.19;;;18.63;34.17
29879;BME280;16752;53.364;-1.488;2023-01-28T12:20:09;101889.94;;;18.30;34.53
29879;BME280;16752;53.364;-1.488;2023-01-28T12:37:53;101869.22;;;22.21;29.29
29879;BME280;16752;53.364;-1.488;2023-01-28T12:42:55;101867.53;;;22.20;29.44
29879;BME280;16752;53.364;-1.488;2023-01-28T12:45:33;101856.06;;;21.79;29.07
29879;BME280;16752;53.364;-1.488;2023-01-28T12:48:06;101850.91;;;20.65;31.07
29879;BME280;16752;53.364;-1.488;2023-01-28T12:50:35;101849.47;;;19.97;32.08
29879;BME280;16752;53.364;-1.488;2023-01-28T12:53:16;101841.84;;;19.93;32.29
29879;BME280;16752;53.364;-1.488;2023-01-28T12:55:48;101836.22;;;19.64;32.95
29879;BME280;16752;53.364;-1.488;2023-01-28T12:58:20;101829.69;;;19.68;32.98
29879;BME280;16752;53.364;-1.488;2023-01-28T13:00:53;101834.78;;;19.60;32.94
29879;BME280;16752;53.364;-1.488;2023-01-28T13:03:25;101828.38;;;19.40;33.14
29879;BME280;16752;53.364;-1.488;2023-01-28T13:05:51;101838.25;;;18.82;34.76
29879;BME280;16752;53.364;-1.488;2023-01-28T13:08:20;101838.88;;;19.08;34.26
29879;BME280;16752;53.364;-1.488;2023-01-28T13:10:47;101840.69;;;19.07;34.08
29879;BME280;16752;53.364;-1.488;2023-01-28T13:15:42;101843.44;;;18.83;34.97
29879;BME280;16752;53.364;-1.488;2023-01-28T13:18:27;101834.91;;;19.02;34.48
29879;BME280;16752;53.364;-1.488;2023-01-28T13:20:53;101831.63;;;18.87;35.29
29879;BME280;16752;53.364;-1.488;2023-01-28T13:25:48;101837.31;;;18.94;34.80
29879;BME280;16752;53.364;-1.488;2023-01-28T13:28:27;101838.97;;;17.40;37.61
29879;BME280;16752;53.364;-1.488;2023-01-28T13:30:59;101839.44;;;18.43;35.99
29879;BME280;16752;53.364;-1.488;2023-01-28T13:33:35;101843.09;;;18.53;35.68
29879;BME280;16752;53.364;-1.488;2023-01-28T13:38:42;101839.47;;;18.54;35.45
29879;BME280;16752;53.364;-1.488;2023-01-28T13:41:08;101838.88;;;18.50;35.54
29879;BME280;16752;53.364;-1.488;2023-01-28T13:43:35;101846.25;;;18.23;36.38
29879;BME280;16752;53.364;-1.488;2023-01-28T13:46:11;101846.31;;;18.10;36.77
29879;BME280;16752;53.364;-1.488;2023-01-28T13:48:56;101847.72;;;17.66;37.97
29879;BME280;16752;53.364;-1.488;2023-01-28T13:56:34;101845.53;;;17.48;37.68
29879;BME280;16752;53.364;-1.488;2023-01-28T14:01:58;101843.22;;;17.30;38.37
29879;BME280;16752;53.364;-1.488;2023-01-28T14:17:29;101833.41;;;17.69;37.32
29879;BME280;16752;53.364;-1.488;2023-01-28T14:19:59;101838.38;;;17.74;37.33
29879;BME280;16752;53.364;-1.488;2023-01-28T14:22:25;101845.81;;;17.81;37.29
29879;BME280;16752;53.364;-1.488;2023-01-28T14:24:50;101848.88;;;17.99;36.84
29879;BME280;16752;53.364;-1.488;2023-01-28T14:29:48;101848.56;;;17.80;37.04
29879;BME280;16752;53.364;-1.488;2023-01-28T14:32:15;101843.13;;;17.06;38.25
29879;BME280;16752;53.364;-1.488;2023-01-28T14:34:42;101851.53;;;17.62;37.50
29879;BME280;16752;53.364;-1.488;2023-01-28T14:37:12;101847.91;;;17.76;37.01
29879;BME280;16752;53.364;-1.488;2023-01-28T14:42:10;101859.28;;;17.53;37.48
29879;BME280;16752;53.364;-1.488;2023-01-28T14:44:38;101854.53;;;17.45;37.82